createdAt,value
2023-02-11T00:01:23.456Z,103447.06
2023-02-11T00:03:51.310Z,103442.69
2023-02-11T00:06:19.277Z,103435.78
2023-02-11T00:08:47.516Z,103429.44
2023-02-11T00:11:18.725Z,103427.75
2023-02-11T00:13:47.750Z,103415.22
2023-02-11T00:16:17.498Z,103415.22
2023-02-11T00:18:45.965Z,103404.66
2023-02-11T00:21:16.548Z,103409.00
2023-02-11T00:23:44.688Z,103398.44
2023-02-11T00:26:13.801Z,103402.25
2023-02-11T00:28:43.294Z,103399.56
2023-02-11T00:31:11.406Z,103400.56
2023-02-11T00:33:39.388Z,103398.72
2023-02-11T00:36:09.342Z,103402.41
2023-02-11T00:38:37.258Z,103404.22
2023-02-11T00:41:05.453Z,103396.34
2023-02-11T00:43:33.280Z,103395.34
2023-02-11T00:46:02.555Z,103392.81
2023-02-11T00:48:30.423Z,103388.72
2023-02-11T00:50:58.222Z,103395.63
2023-02-11T00:53:26.002Z,103390.41
2023-02-11T00:55:53.691Z,103390.41
2023-02-11T00:58:22.513Z,103385.06
2023-02-11T01:00:50.565Z,103388.72
2023-02-11T01:03:19.607Z,103392.25
2023-02-11T01:05:47.716Z,103402.13
2023-02-11T01:08:15.535Z,103401.28
2023-02-11T01:10:43.967Z,103412.13
2023-02-11T01:13:12.046Z,103405.63
2023-02-11T01:15:39.903Z,103407.31
2023-02-11T01:18:07.665Z,103402.13
2023-02-11T01:20:36.809Z,103409.16
2023-02-11T01:23:04.536Z,103409.16
2023-02-11T01:25:32.270Z,103413.66
2023-02-11T01:28:00.023Z,103401.28
2023-02-11T01:30:27.803Z,103403.94
2023-02-11T01:32:55.481Z,103399.44
2023-02-11T01:35:23.382Z,103405.63
2023-02-11T01:37:52.512Z,103411.84
2023-02-11T01:40:20.507Z,103418.19
2023-02-11T01:42:50.716Z,103414.81
2023-02-11T01:45:54.427Z,103418.19
2023-02-11T01:48:25.317Z,103407.47
2023-02-11T01:50:58.388Z,103395.06
2023-02-11T01:53:47.755Z,103397.75
2023-02-11T01:56:34.408Z,103394.22
2023-02-11T01:59:10.748Z,103388.03
2023-02-11T02:01:40.792Z,103398.88
2023-02-11T02:04:10.807Z,103382.81
2023-02-11T02:06:45.182Z,103372.94
2023-02-11T02:09:19.758Z,103367.75
2023-02-11T02:11:47.440Z,103377.47
2023-02-11T02:14:15.220Z,103373.09
2023-02-11T02:16:43.193Z,103372.09
2023-02-11T02:19:50.555Z,103377.59
2023-02-11T02:22:56.034Z,103379.28
2023-02-11T02:25:43.582Z,103382.25
2023-02-11T02:28:23.278Z,103389.28
2023-02-11T02:31:10.667Z,103375.91
2023-02-11T02:33:46.404Z,103372.53
2023-02-11T02:36:20.952Z,103372.53
2023-02-11T02:38:55.624Z,103374.22
2023-02-11T02:41:28.014Z,103374.34
2023-02-11T02:43:56.332Z,103377.88
2023-02-11T02:46:26.589Z,103379.72
2023-02-11T02:48:56.414Z,103376.19
2023-02-11T02:51:42.253Z,103378.72
2023-02-11T02:54:41.049Z,103363.66
2023-02-11T02:57:24.764Z,103357.44
2023-02-11T03:00:05.196Z,103347.72
2023-02-11T03:02:37.596Z,103359.13
2023-02-11T03:05:13.134Z,103356.47
2023-02-11T03:07:45.148Z,103364.50
2023-02-11T03:10:17.618Z,103370.69
2023-02-11T03:12:47.303Z,103369.00
2023-02-11T03:15:16.008Z,103367.31
2023-02-11T03:17:48.613Z,103362.81
2023-02-11T03:20:21.259Z,103359.28
2023-02-11T03:22:56.671Z,103354.78
2023-02-11T03:25:29.795Z,103355.63
2023-02-11T03:28:05.530Z,103356.47
2023-02-11T03:30:39.569Z,103362.81
2023-02-11T03:33:13.685Z,103355.75
2023-02-11T03:35:47.109Z,103355.75
2023-02-11T03:38:20.732Z,103351.69
2023-02-11T03:40:48.876Z,103357.72
2023-02-11T03:43:20.052Z,103361.41
2023-02-11T03:45:50.429Z,103359.44
2023-02-11T03:48:23.556Z,103363.94
2023-02-11T03:50:54.305Z,103363.94
2023-02-11T03:53:23.829Z,103360.41
2023-02-11T03:55:53.806Z,103365.19
2023-02-11T03:58:21.769Z,103371.25
2023-02-11T04:00:50.613Z,103357.88
2023-02-11T04:03:19.139Z,103354.34
2023-02-11T04:05:46.934Z,103357.88
2023-02-11T04:08:16.015Z,103359.72
2023-02-11T04:10:43.682Z,103363.22
2023-02-11T04:13:11.407Z,103360.56
2023-02-11T04:15:39.164Z,103346.19
2023-02-11T04:18:06.931Z,103328.59
2023-02-11T04:20:34.655Z,103334.78
2023-02-11T04:23:02.357Z,103335.75
2023-02-11T04:25:31.585Z,103332.94
2023-02-11T04:27:59.351Z,103325.06
2023-02-11T04:30:27.036Z,103336.59
2023-02-11T04:32:54.923Z,103325.91
2023-02-11T04:35:22.763Z,103319.69
2023-02-11T04:37:50.478Z,103328.44
2023-02-11T04:40:18.456Z,103325.06
2023-02-11T04:42:47.554Z,103327.44
2023-02-11T04:45:15.292Z,103332.94
2023-02-11T04:47:43.017Z,103334.78
2023-02-11T04:50:11.092Z,103343.50
2023-02-11T04:52:38.790Z,103342.66
2023-02-11T04:55:07.408Z,103338.28
2023-02-11T04:57:35.162Z,103338.16
2023-02-11T05:00:04.551Z,103339.13
2023-02-11T05:02:32.429Z,103342.66
2023-02-11T05:05:00.200Z,103344.50
2023-02-11T05:07:28.129Z,103345.34
2023-02-11T05:09:55.824Z,103345.47
2023-02-11T05:12:23.535Z,103343.78
2023-02-11T05:14:51.233Z,103348.00
2023-02-11T05:17:20.340Z,103351.69
2023-02-11T05:19:48.064Z,103347.31
2023-02-11T05:22:15.792Z,103339.41
2023-02-11T05:24:43.530Z,103338.44
2023-02-11T05:27:11.233Z,103343.94
2023-02-11T05:29:39.237Z,103339.41
2023-02-11T05:32:07.433Z,103335.91
2023-02-11T05:34:36.533Z,103333.22
2023-02-11T05:37:04.398Z,103332.38
2023-02-11T05:39:32.137Z,103325.34
2023-02-11T05:41:59.877Z,103325.34
2023-02-11T05:44:27.723Z,103325.34
2023-02-11T05:46:55.438Z,103330.56
2023-02-11T05:49:23.176Z,103326.19
2023-02-11T05:51:52.209Z,103326.19
2023-02-11T05:54:19.945Z,103325.34
2023-02-11T05:56:47.676Z,103320.84
2023-02-11T05:59:16.608Z,103327.03
2023-02-11T06:01:44.787Z,103329.84
2023-02-11T06:04:12.555Z,103334.50
2023-02-11T06:06:40.225Z,103336.03
2023-02-11T06:09:10.773Z,103339.78
2023-02-11T06:11:38.518Z,103338.34
2023-02-11T06:14:06.335Z,103337.78
2023-02-11T06:16:34.015Z,103341.53
2023-02-11T06:19:01.742Z,103341.63
2023-02-11T06:21:42.874Z,103335.28
2023-02-11T06:24:21.655Z,103338.41
2023-02-11T06:26:56.408Z,103326.03
2023-02-11T06:29:24.173Z,103337.78
2023-02-11T06:31:51.934Z,103347.34
2023-02-11T06:34:19.637Z,103352.44
2023-02-11T06:36:47.525Z,103352.03
2023-02-11T06:39:16.624Z,103347.97
2023-02-11T06:41:44.443Z,103344.72
2023-02-11T06:44:12.267Z,103340.50
2023-02-11T06:46:40.051Z,103339.09
2023-02-11T06:49:07.765Z,103345.59
2023-02-11T06:51:35.478Z,103351.22
2023-02-11T06:54:03.228Z,103354.06
2023-02-11T06:56:32.337Z,103353.34
2023-02-11T06:59:00.505Z,103360.53
2023-02-11T07:01:29.094Z,103360.81
2023-02-11T07:03:57.470Z,103360.81
2023-02-11T07:06:28.096Z,103369.00
2023-02-11T07:08:56.936Z,103350.28
2023-02-11T07:11:26.887Z,103362.25
2023-02-11T07:13:58.498Z,103376.63
2023-02-11T07:16:26.351Z,103379.44
2023-02-11T07:18:54.295Z,103373.22
2023-02-11T07:21:24.776Z,103382.97
2023-02-11T07:23:52.510Z,103380.28
2023-02-11T07:26:23.005Z,103383.94
2023-02-11T07:28:51.829Z,103378.59
2023-02-11T07:31:23.417Z,103379.44
2023-02-11T07:33:53.184Z,103382.25
2023-02-11T07:36:21.374Z,103385.78
2023-02-11T07:38:49.123Z,103379.72
2023-02-11T07:41:19.435Z,103379.72
2023-02-11T07:43:47.332Z,103380.56
2023-02-11T07:46:16.946Z,103380.69
2023-02-11T07:48:46.275Z,103395.78
2023-02-11T07:51:16.455Z,103393.66
2023-02-11T07:53:44.546Z,103400.97
2023-02-11T07:56:13.706Z,103393.91
2023-02-11T07:58:43.045Z,103398.25
2023-02-11T08:01:12.867Z,103397.84
2023-02-11T08:03:42.757Z,103390.03
2023-02-11T08:06:13.320Z,103391.06
2023-02-11T08:08:41.311Z,103404.44
2023-02-11T08:11:09.894Z,103402.19
2023-02-11T08:13:38.054Z,103408.31
2023-02-11T08:16:06.979Z,103405.25
2023-02-11T08:18:36.362Z,103403.75
2023-02-11T08:21:07.932Z,103419.03
2023-02-11T08:23:38.088Z,103423.63
2023-02-11T08:26:07.357Z,103429.56
2023-02-11T08:28:37.293Z,103422.09
2023-02-11T08:31:07.697Z,103425.22
2023-02-11T08:33:35.705Z,103424.66
2023-02-11T08:36:08.548Z,103425.91
2023-02-11T08:38:37.812Z,103424.50
2023-02-11T08:41:06.319Z,103433.53
2023-02-11T08:43:34.043Z,103437.34
2023-02-11T08:46:02.578Z,103427.75
2023-02-11T08:48:31.216Z,103435.06
2023-02-11T08:50:59.152Z,103431.13
2023-02-11T08:53:26.948Z,103444.25
2023-02-11T08:55:58.748Z,103434.66
2023-02-11T08:58:26.528Z,103436.63
2023-02-11T09:00:54.533Z,103437.63
2023-02-11T09:03:22.407Z,103435.78
2023-02-11T09:05:53.129Z,103437.75
2023-02-11T09:08:21.090Z,103437.91
2023-02-11T09:10:49.296Z,103434.38
2023-02-11T09:13:18.538Z,103439.88
2023-02-11T09:15:47.457Z,103439.03
2023-02-11T09:18:15.470Z,103438.06
2023-02-11T09:20:43.393Z,103442.56
2023-02-11T09:23:12.355Z,103444.25
2023-02-11T09:25:40.476Z,103452.44
2023-02-11T09:28:08.612Z,103456.94
2023-02-11T09:30:39.433Z,103447.06
2023-02-11T09:33:07.264Z,103456.22
2023-02-11T09:35:35.270Z,103456.50
2023-02-11T09:38:03.039Z,103453.81
2023-02-11T09:40:30.941Z,103467.69
2023-02-11T09:43:05.275Z,103454.69
2023-02-11T09:45:33.741Z,103462.09
2023-02-11T09:48:06.471Z,103469.41
2023-02-11T09:50:36.730Z,103472.25
2023-02-11T09:53:10.998Z,103480.03
2023-02-11T09:55:42.763Z,103478.38
2023-02-11T09:58:14.894Z,103475.56
2023-02-11T10:00:48.987Z,103475.59
2023-02-11T10:03:56.837Z,103481.53
2023-02-11T10:06:43.125Z,103480.31
2023-02-11T10:09:34.297Z,103481.59
2023-02-11T10:12:16.283Z,103490.78
2023-02-11T10:15:05.183Z,103484.72
2023-02-11T10:17:39.813Z,103487.53
2023-02-11T10:20:24.862Z,103494.03
2023-02-11T10:22:55.749Z,103496.00
2023-02-11T10:25:26.305Z,103498.81
2023-02-11T10:27:58.090Z,103505.16
2023-02-11T10:30:32.231Z,103518.56
2023-02-11T10:33:04.805Z,103522.38
2023-02-11T10:35:34.260Z,103526.19
2023-02-11T10:38:02.022Z,103521.81
2023-02-11T10:40:32.500Z,103516.31
2023-02-11T10:43:04.555Z,103517.44
2023-02-11T10:45:37.105Z,103515.63
2023-02-11T10:48:07.096Z,103515.63
2023-02-11T10:50:37.047Z,103518.44
2023-02-11T10:53:14.555Z,103520.13
2023-02-11T10:55:51.320Z,103524.63
2023-02-11T10:58:26.627Z,103529.84
2023-02-11T11:00:56.700Z,103529.84
2023-02-11T11:03:26.312Z,103531.94
2023-02-11T11:05:58.722Z,103527.81
2023-02-11T11:08:40.765Z,103535.81
2023-02-11T11:11:10.810Z,103532.22
2023-02-11T11:13:39.741Z,103535.97
2023-02-11T11:16:21.402Z,103524.28
2023-02-11T11:18:50.910Z,103527.47
2023-02-11T11:21:23.802Z,103522.59
2023-02-11T11:23:55.516Z,103521.91
2023-02-11T11:26:24.016Z,103533.28
2023-02-11T11:28:56.137Z,103521.78
2023-02-11T11:31:27.836Z,103523.03
2023-02-11T11:33:59.615Z,103527.94
2023-02-11T11:36:36.266Z,103531.31
2023-02-11T11:39:16.618Z,103520.97
2023-02-11T11:41:52.550Z,103538.63
2023-02-11T11:44:26.131Z,103540.16
2023-02-11T11:47:14.828Z,103542.53
2023-02-11T11:49:49.829Z,103542.19
2023-02-11T11:52:27.590Z,103538.50
2023-02-11T11:55:02.889Z,103541.16
2023-02-11T11:57:31.034Z,103533.63
2023-02-11T11:59:59.410Z,103528.75
2023-02-11T12:02:53.423Z,103531.88
2023-02-11T12:05:29.334Z,103531.69
2023-02-11T12:08:13.150Z,103534.44
2023-02-11T12:11:00.923Z,103535.19
2023-02-11T12:13:41.896Z,103528.72
2023-02-11T12:16:27.301Z,103537.34
2023-02-11T12:19:45.892Z,103528.22
2023-02-11T12:22:22.830Z,103520.75
2023-02-11T12:24:57.552Z,103513.13
2023-02-11T12:27:42.507Z,103511.75
2023-02-11T12:30:24.100Z,103506.66
2023-02-11T12:33:01.828Z,103508.81
2023-02-11T12:35:37.888Z,103503.59
2023-02-11T12:38:21.205Z,103507.56
2023-02-11T12:41:02.739Z,103510.38
2023-02-11T12:43:36.094Z,103505.69
2023-02-11T12:46:24.356Z,103502.22
2023-02-11T12:49:18.457Z,103502.81
2023-02-11T12:52:02.196Z,103496.47
2023-02-11T12:54:33.024Z,103487.75
2023-02-11T12:57:07.258Z,103493.66
2023-02-11T12:59:46.685Z,103494.31
2023-02-11T13:02:25.317Z,103488.78
2023-02-11T13:04:57.857Z,103495.06
2023-02-11T13:07:32.149Z,103497.13
2023-02-11T13:10:05.430Z,103491.44
2023-02-11T13:12:53.920Z,103497.88
2023-02-11T13:15:21.652Z,103489.19
2023-02-11T13:18:01.096Z,103494.31
2023-02-11T13:20:36.776Z,103492.78
2023-02-11T13:23:12.637Z,103488.00
2023-02-11T13:25:47.349Z,103486.63
2023-02-11T13:28:34.813Z,103485.22
2023-02-11T13:31:03.771Z,103483.69
2023-02-11T13:33:33.935Z,103492.88
2023-02-11T13:36:20.295Z,103485.97
2023-02-11T13:39:00.884Z,103485.41
2023-02-11T13:41:52.456Z,103477.66
2023-02-11T13:44:26.179Z,103478.56
2023-02-11T13:47:01.336Z,103484.25
2023-02-11T13:49:36.343Z,103479.97
2023-02-11T13:52:06.905Z,103480.66
2023-02-11T13:54:38.088Z,103480.13
2023-02-11T13:57:36.587Z,103482.56
2023-02-11T14:00:27.770Z,103483.97
2023-02-11T14:03:44.588Z,103479.75
2023-02-11T14:06:33.061Z,103482.16
2023-02-11T14:09:09.923Z,103480.16
2023-02-11T14:11:45.150Z,103485.69
2023-02-11T14:14:19.922Z,103483.25
2023-02-11T14:17:21.230Z,103473.41
2023-02-11T14:19:50.421Z,103490.34
2023-02-11T14:22:23.695Z,103482.44
2023-02-11T14:24:55.484Z,103490.75
2023-02-11T14:27:38.556Z,103483.72
2023-02-11T14:30:25.339Z,103474.72
2023-02-11T14:33:11.054Z,103469.66
2023-02-11T14:35:48.718Z,103488.59
2023-02-11T14:38:25.946Z,103487.22
2023-02-11T14:41:02.720Z,103484.31
2023-02-11T14:43:32.679Z,103491.97
2023-02-11T14:46:02.284Z,103488.06
2023-02-11T14:48:32.624Z,103485.81
2023-02-11T14:51:04.115Z,103488.13
2023-02-11T14:53:34.747Z,103492.09
2023-02-11T14:56:02.501Z,103496.09
2023-02-11T14:58:31.769Z,103490.19
2023-02-11T15:01:01.794Z,103495.69
2023-02-11T15:03:34.272Z,103490.63
2023-02-11T15:06:06.464Z,103497.53
2023-02-11T15:08:38.267Z,103493.25
2023-02-11T15:11:13.021Z,103494.97
2023-02-11T15:13:47.481Z,103502.88
2023-02-11T15:16:18.500Z,103505.91
2023-02-11T15:18:52.496Z,103504.22
2023-02-11T15:21:25.441Z,103504.31
2023-02-11T15:23:58.165Z,103506.84
2023-02-11T15:26:26.012Z,103501.78
2023-02-11T15:28:53.785Z,103506.25
2023-02-11T15:31:24.299Z,103502.13
2023-02-11T15:33:54.588Z,103495.06
2023-02-11T15:36:29.010Z,103521.09
2023-02-11T15:39:19.622Z,103518.31
2023-02-11T15:41:47.428Z,103517.53
2023-02-11T15:44:33.159Z,103524.06
2023-02-11T15:47:01.345Z,103528.03
2023-02-11T15:49:30.479Z,103518.59
2023-02-11T15:51:59.079Z,103523.28
2023-02-11T15:54:31.547Z,103525.41
2023-02-11T15:57:03.824Z,103527.56
2023-02-11T15:59:35.495Z,103523.19
2023-02-11T16:02:08.961Z,103514.59
2023-02-11T16:04:38.766Z,103507.53
2023-02-11T16:07:06.596Z,103512.06
2023-02-11T16:09:36.121Z,103515.72
2023-02-11T16:12:07.501Z,103518.56
2023-02-11T16:14:39.311Z,103517.72
2023-02-11T16:17:09.728Z,103526.78
2023-02-11T16:19:44.852Z,103518.03
2023-02-11T16:22:18.210Z,103521.72
2023-02-11T16:24:49.032Z,103518.31
2023-02-11T16:27:23.743Z,103519.31
2023-02-11T16:29:52.148Z,103525.84
2023-02-11T16:32:22.402Z,103528.53
2023-02-11T16:34:52.376Z,103537.56
2023-02-11T16:37:20.152Z,103535.72
2023-02-11T16:39:47.972Z,103531.50
2023-02-11T16:42:15.708Z,103531.50
2023-02-11T16:44:43.454Z,103538.84
2023-02-11T16:47:18.974Z,103530.81
2023-02-11T16:49:46.772Z,103532.66
2023-02-11T16:52:17.164Z,103530.81
2023-02-11T16:54:45.340Z,103544.22
2023-02-11T16:57:15.658Z,103537.16
2023-02-11T16:59:43.515Z,103549.75
2023-02-11T17:02:16.744Z,103541.84
2023-02-11T17:04:45.240Z,103546.50
2023-02-11T17:07:13.335Z,103556.25
2023-02-11T17:09:42.505Z,103553.56
2023-02-11T17:12:10.237Z,103551.88
2023-02-11T17:14:37.986Z,103554.41
2023-02-11T17:17:05.793Z,103569.69
2023-02-11T17:19:33.538Z,103564.44
2023-02-11T17:22:01.231Z,103569.81
2023-02-11T17:24:29.024Z,103562.75
2023-02-11T17:26:58.118Z,103567.28
2023-02-11T17:29:26.671Z,103568.97
2023-02-11T17:31:54.875Z,103565.44
2023-02-11T17:34:23.828Z,103566.44
2023-02-11T17:36:51.840Z,103572.66
2023-02-11T17:39:21.093Z,103572.66
2023-02-11T17:41:48.975Z,103579.72
2023-02-11T17:44:18.071Z,103587.78
2023-02-11T17:46:45.811Z,103584.81
2023-02-11T17:49:13.760Z,103598.09
2023-02-11T17:51:41.616Z,103602.31
2023-02-11T17:54:12.136Z,103603.16
2023-02-11T17:56:40.278Z,103605.84
2023-02-11T17:59:09.390Z,103612.06
2023-02-11T18:01:40.071Z,103613.06
2023-02-11T18:04:09.902Z,103609.53
2023-02-11T18:06:37.652Z,103616.75
2023-02-11T18:09:05.484Z,103619.41
2023-02-11T18:11:34.996Z,103617.59
2023-02-11T18:14:04.558Z,103622.09
2023-02-11T18:16:35.062Z,103622.97
2023-02-11T18:19:04.746Z,103616.75
2023-02-11T18:21:32.516Z,103618.56
2023-02-11T18:24:05.974Z,103619.28
2023-02-11T18:26:34.530Z,103620.41
2023-02-11T18:29:03.782Z,103621.13
2023-02-11T18:31:31.735Z,103625.50
2023-02-11T18:33:59.579Z,103620.97
2023-02-11T18:36:28.745Z,103631.56
2023-02-11T18:38:58.078Z,103633.41
2023-02-11T18:41:25.830Z,103630.00
2023-02-11T18:43:54.114Z,103634.25
2023-02-11T18:46:21.857Z,103646.69
2023-02-11T18:48:50.133Z,103639.63
2023-02-11T18:51:19.349Z,103643.16
2023-02-11T18:53:48.450Z,103642.16
2023-02-11T18:56:18.370Z,103642.16
2023-02-11T18:58:46.179Z,103645.13
2023-02-11T19:01:16.353Z,103638.78
2023-02-11T19:03:44.520Z,103641.59
2023-02-11T19:06:16.689Z,103639.75
2023-02-11T19:08:44.479Z,103643.28
2023-02-11T19:11:16.171Z,103637.78
2023-02-11T19:13:43.906Z,103649.91
2023-02-11T19:16:12.455Z,103640.16
2023-02-11T19:18:40.203Z,103640.16
2023-02-11T19:21:09.380Z,103641.88
2023-02-11T19:23:37.532Z,103645.53
2023-02-11T19:26:06.458Z,103642.84
2023-02-11T19:28:37.187Z,103646.38
2023-02-11T19:31:09.606Z,103648.22
2023-02-11T19:33:38.007Z,103647.22
2023-02-11T19:36:07.204Z,103651.59
2023-02-11T19:38:35.256Z,103661.34
2023-02-11T19:41:03.005Z,103659.50
2023-02-11T19:43:30.840Z,103668.56
2023-02-11T19:46:02.053Z,103672.94
2023-02-11T19:48:30.090Z,103668.56
2023-02-11T19:50:58.187Z,103678.31
2023-02-11T19:53:25.964Z,103665.88
2023-02-11T19:55:53.886Z,103666.03
2023-02-11T19:58:21.795Z,103668.84
2023-02-11T20:00:49.513Z,103676.06
2023-02-11T20:03:18.658Z,103688.63
2023-02-11T20:05:47.796Z,103688.78
2023-02-11T20:08:17.023Z,103684.53
2023-02-11T20:10:44.802Z,103688.78
2023-02-11T20:13:12.508Z,103680.88
2023-02-11T20:15:40.322Z,103691.59
2023-02-11T20:18:08.171Z,103691.75
2023-02-11T20:20:39.299Z,103688.38
2023-02-11T20:23:07.003Z,103696.41
2023-02-11T20:25:34.681Z,103694.59
2023-02-11T20:28:02.440Z,103705.31
2023-02-11T20:30:30.231Z,103713.50
2023-02-11T20:32:58.517Z,103709.00
2023-02-11T20:35:26.293Z,103718.03
2023-02-11T20:37:55.410Z,103710.97
2023-02-11T20:40:23.190Z,103719.03
2023-02-11T20:42:50.897Z,103717.34
2023-02-11T20:45:18.741Z,103711.97
2023-02-11T20:47:46.439Z,103719.16
2023-02-11T20:50:14.160Z,103721.84
2023-02-11T20:52:41.904Z,103724.41
2023-02-11T20:55:11.063Z,103726.22
2023-02-11T20:57:38.820Z,103727.06
2023-02-11T21:00:07.904Z,103727.06
2023-02-11T21:02:35.668Z,103726.22
2023-02-11T21:05:03.383Z,103735.13
2023-02-11T21:07:31.384Z,103736.97
2023-02-11T21:09:59.107Z,103736.13
2023-02-11T21:12:28.175Z,103744.16
2023-02-11T21:14:57.183Z,103740.63
2023-02-11T21:17:26.359Z,103734.44
2023-02-11T21:19:54.069Z,103746.00
2023-02-11T21:22:21.809Z,103745.16
2023-02-11T21:24:49.709Z,103749.53
2023-02-11T21:27:17.469Z,103749.69
2023-02-11T21:29:54.115Z,103747.28
2023-02-11T21:32:22.511Z,103748.84
2023-02-11T21:34:50.228Z,103746.16
2023-02-11T21:37:17.929Z,103746.28
2023-02-11T21:39:45.700Z,103762.53
2023-02-11T21:42:13.490Z,103760.84
2023-02-11T21:44:41.335Z,103752.22
2023-02-11T21:47:10.467Z,103761.84
2023-02-11T21:49:38.187Z,103762.81
2023-02-11T21:52:06.021Z,103759.28
2023-02-11T21:54:33.735Z,103758.44
2023-02-11T21:57:03.135Z,103766.50
2023-02-11T21:59:31.808Z,103762.97
2023-02-11T22:01:59.890Z,103771.00
2023-02-11T22:04:29.035Z,103767.63
2023-02-11T22:06:56.881Z,103769.47
2023-02-11T22:09:24.640Z,103772.16
2023-02-11T22:11:53.639Z,103768.75
2023-02-11T22:14:21.408Z,103753.34
2023-02-11T22:16:49.297Z,103766.91
2023-02-11T22:19:17.339Z,103775.97
2023-02-11T22:21:46.480Z,103767.06
2023-02-11T22:24:14.194Z,103770.72
2023-02-11T22:26:41.966Z,103762.53
2023-02-11T22:29:10.557Z,103766.22
2023-02-11T22:31:38.440Z,103759.00
2023-02-11T22:34:06.587Z,103768.91
2023-02-11T22:36:35.762Z,103764.53
2023-02-11T22:39:07.099Z,103760.84
2023-02-11T22:41:35.116Z,103777.09
2023-02-11T22:44:02.864Z,103773.56
2023-02-11T22:46:30.868Z,103774.53
2023-02-11T22:48:58.690Z,103775.53
2023-02-11T22:51:28.168Z,103775.69
2023-02-11T22:53:57.490Z,103775.69
2023-02-11T22:56:27.946Z,103771.88
2023-02-11T22:58:58.243Z,103768.34
2023-02-11T23:01:25.978Z,103771.16
2023-02-11T23:03:53.880Z,103770.31
2023-02-11T23:06:22.531Z,103773.00
2023-02-11T23:08:50.243Z,103762.41
2023-02-11T23:11:21.080Z,103772.28
2023-02-11T23:13:52.210Z,103768.75
2023-02-11T23:16:22.364Z,103773.28
2023-02-11T23:18:50.696Z,103772.28
2023-02-11T23:21:21.153Z,103769.59
2023-02-11T23:23:50.070Z,103774.13
2023-02-11T23:26:19.109Z,103768.75
2023-02-11T23:28:47.391Z,103778.50
2023-02-11T23:31:18.993Z,103774.13
2023-02-11T23:33:47.322Z,103772.28
2023-02-11T23:36:15.896Z,103772.28
2023-02-11T23:38:44.286Z,103769.59
2023-02-11T23:41:12.438Z,103779.47
2023-02-11T23:43:40.406Z,103778.63
2023-02-11T23:46:09.320Z,103777.66
2023-02-11T23:48:40.339Z,103783.00
2023-02-11T23:51:09.604Z,103783.00
2023-02-11T23:53:37.588Z,103777.66
2023-02-11T23:56:09.070Z,103777.66
2023-02-11T23:58:37.616Z,103780.34
